sensor_id;sensor_type;location;lat;lon;timestamp;pressure;altitude;pressure_sealevel;temperature;humidity
70323;BME280;57735;56.264;43.898;2022-11-20T00:01:54;101303.31;;;-6.72;65.47
70323;BME280;57735;56.264;43.898;2022-11-20T00:04:25;101297.31;;;-6.74;65.48
70323;BME280;57735;56.264;43.898;2022-11-20T00:06:55;101305.84;;;-6.69;65.52
70323;BME280;57735;56.264;43.898;2022-11-20T00:09:26;101302.38;;;-6.68;65.48
70323;BME280;57735;56.264;43.898;2022-11-20T00:12:00;101298.91;;;-6.66;65.27
70323;BME280;57735;56.264;43.898;2022-11-20T00:14:31;101302.34;;;-6.66;65.29
70323;BME280;57735;56.264;43.898;2022-11-20T00:17:02;101290.22;;;-6.64;65.38
70323;BME280;57735;56.264;43.898;2022-11-20T00:19:35;101289.38;;;-6.64;65.21
70323;BME280;57735;56.264;43.898;2022-11-20T00:22:06;101296.31;;;-6.66;65.08
70323;BME280;57735;56.264;43.898;2022-11-20T00:24:36;101296.28;;;-6.63;65.27
70323;BME280;57735;56.264;43.898;2022-11-20T00:27:07;101305.91;;;-6.72;65.13
70323;BME280;57735;56.264;43.898;2022-11-20T00:29:38;101293.00;;;-6.76;65.25
70323;BME280;57735;56.264;43.898;2022-11-20T00:32:09;101293.97;;;-6.83;65.60
70323;BME280;57735;56.264;43.898;2022-11-20T00:34:40;101289.72;;;-6.87;65.57
70323;BME280;57735;56.264;43.898;2022-11-20T00:37:10;101283.63;;;-6.85;65.54
70323;BME280;57735;56.264;43.898;2022-11-20T00:39:44;101285.28;;;-6.79;65.88
70323;BME280;57735;56.264;43.898;2022-11-20T00:42:17;101288.72;;;-6.79;65.24
70323;BME280;57735;56.264;43.898;2022-11-20T00:44:48;101292.22;;;-6.83;65.44
70323;BME280;57735;56.264;43.898;2022-11-20T00:47:19;101297.53;;;-6.89;65.37
70323;BME280;57735;56.264;43.898;2022-11-20T00:49:50;101296.69;;;-6.91;65.67
70323;BME280;57735;56.264;43.898;2022-11-20T00:52:23;101304.50;;;-6.94;65.57
70323;BME280;57735;56.264;43.898;2022-11-20T00:54:54;101306.25;;;-6.96;65.56
70323;BME280;57735;56.264;43.898;2022-11-20T00:57:28;101298.50;;;-6.97;65.44
70323;BME280;57735;56.264;43.898;2022-11-20T00:59:59;101293.31;;;-6.97;65.78
70323;BME280;57735;56.264;43.898;2022-11-20T01:02:30;101282.97;;;-7.00;65.44
70323;BME280;57735;56.264;43.898;2022-11-20T01:05:01;101275.22;;;-7.02;65.40
70323;BME280;57735;56.264;43.898;2022-11-20T01:07:34;101272.72;;;-7.05;66.05
70323;BME280;57735;56.264;43.898;2022-11-20T01:10:05;101269.25;;;-7.04;65.89
70323;BME280;57735;56.264;43.898;2022-11-20T01:12:36;101269.25;;;-7.04;65.79
70323;BME280;57735;56.264;43.898;2022-11-20T01:15:07;101285.72;;;-7.11;65.78
70323;BME280;57735;56.264;43.898;2022-11-20T01:17:40;101276.16;;;-7.05;66.54
70323;BME280;57735;56.264;43.898;2022-11-20T01:20:13;101276.88;;;-6.95;66.73
70323;BME280;57735;56.264;43.898;2022-11-20T01:22:44;101284.63;;;-6.93;66.09
70323;BME280;57735;56.264;43.898;2022-11-20T01:25:14;101276.88;;;-6.95;65.96
70323;BME280;57735;56.264;43.898;2022-11-20T01:27:45;101278.59;;;-6.94;65.61
70323;BME280;57735;56.264;43.898;2022-11-20T01:30:16;101288.03;;;-6.90;65.99
70323;BME280;57735;56.264;43.898;2022-11-20T01:32:47;101299.28;;;-6.92;65.77
70323;BME280;57735;56.264;43.898;2022-11-20T01:35:18;101298.53;;;-7.00;65.46
70323;BME280;57735;56.264;43.898;2022-11-20T01:37:50;101296.88;;;-7.05;65.88
70323;BME280;57735;56.264;43.898;2022-11-20T01:40:28;101289.13;;;-7.06;65.64
70323;BME280;57735;56.264;43.898;2022-11-20T01:43:14;101303.81;;;-7.07;65.64
70323;BME280;57735;56.264;43.898;2022-11-20T01:46:00;101294.31;;;-7.06;65.84
70323;BME280;57735;56.264;43.898;2022-11-20T01:48:38;101291.66;;;-7.03;65.88
70323;BME280;57735;56.264;43.898;2022-11-20T01:51:50;101284.69;;;-6.98;65.63
70323;BME280;57735;56.264;43.898;2022-11-20T01:54:27;101285.56;;;-6.99;65.52
70323;BME280;57735;56.264;43.898;2022-11-20T01:57:02;101276.16;;;-7.05;65.82
70323;BME280;57735;56.264;43.898;2022-11-20T01:59:35;101280.53;;;-7.10;65.54
70323;BME280;57735;56.264;43.898;2022-11-20T02:02:08;101273.72;;;-7.17;65.97
70323;BME280;57735;56.264;43.898;2022-11-20T02:04:39;101281.56;;;-7.21;65.79
70323;BME280;57735;56.264;43.898;2022-11-20T02:07:10;101266.03;;;-7.23;66.41
70323;BME280;57735;56.264;43.898;2022-11-20T02:09:42;101265.22;;;-7.26;66.64
70323;BME280;57735;56.264;43.898;2022-11-20T02:12:18;101258.31;;;-7.26;66.72
70323;BME280;57735;56.264;43.898;2022-11-20T02:15:27;101261.72;;;-7.24;66.32
70323;BME280;57735;56.264;43.898;2022-11-20T02:17:58;101252.25;;;-7.25;66.40
70323;BME280;57735;56.264;43.898;2022-11-20T02:20:29;101262.59;;;-7.25;66.53
70323;BME280;57735;56.264;43.898;2022-11-20T02:23:06;101266.09;;;-7.27;66.45
70323;BME280;57735;56.264;43.898;2022-11-20T02:25:40;101260.91;;;-7.26;66.32
70323;BME280;57735;56.264;43.898;2022-11-20T02:28:12;101256.56;;;-7.25;65.99
70323;BME280;57735;56.264;43.898;2022-11-20T02:30:43;101256.59;;;-7.27;66.06
70323;BME280;57735;56.264;43.898;2022-11-20T02:33:14;101263.47;;;-7.24;66.12
70323;BME280;57735;56.264;43.898;2022-11-20T02:35:46;101280.69;;;-7.22;66.30
70323;BME280;57735;56.264;43.898;2022-11-20T02:38:17;101259.03;;;-7.16;66.41
70323;BME280;57735;56.264;43.898;2022-11-20T02:40:48;101264.16;;;-7.12;66.55
70323;BME280;57735;56.264;43.898;2022-11-20T02:43:19;101258.13;;;-7.12;66.45
70323;BME280;57735;56.264;43.898;2022-11-20T02:45:49;101257.25;;;-7.11;66.47
70323;BME280;57735;56.264;43.898;2022-11-20T02:48:25;101257.28;;;-7.14;66.76
70323;BME280;57735;56.264;43.898;2022-11-20T02:50:56;101259.84;;;-7.13;66.77
70323;BME280;57735;56.264;43.898;2022-11-20T02:53:26;101260.72;;;-7.14;66.39
70323;BME280;57735;56.264;43.898;2022-11-20T02:55:57;101259.06;;;-7.19;66.43
70323;BME280;57735;56.264;43.898;2022-11-20T02:58:28;101267.81;;;-7.28;66.01
70323;BME280;57735;56.264;43.898;2022-11-20T03:00:59;101276.47;;;-7.30;65.70
70323;BME280;57735;56.264;43.898;2022-11-20T03:03:32;101271.28;;;-7.27;65.69
70323;BME280;57735;56.264;43.898;2022-11-20T03:06:05;101285.91;;;-7.23;66.13
70323;BME280;57735;56.264;43.898;2022-11-20T03:08:36;101280.66;;;-7.20;66.06
70323;BME280;57735;56.264;43.898;2022-11-20T03:11:08;101279.81;;;-7.21;65.45
70323;BME280;57735;56.264;43.898;2022-11-20T03:13:39;101275.53;;;-7.22;65.16
70323;BME280;57735;56.264;43.898;2022-11-20T03:16:13;101277.25;;;-7.22;65.71
70323;BME280;57735;56.264;43.898;2022-11-20T03:18:45;101262.59;;;-7.23;65.72
70323;BME280;57735;56.264;43.898;2022-11-20T03:21:16;101263.50;;;-7.27;65.69
70323;BME280;57735;56.264;43.898;2022-11-20T03:23:49;101266.94;;;-7.27;65.65
70323;BME280;57735;56.264;43.898;2022-11-20T03:26:22;101262.69;;;-7.31;65.42
70323;BME280;57735;56.264;43.898;2022-11-20T03:28:54;101253.19;;;-7.32;65.66
70323;BME280;57735;56.264;43.898;2022-11-20T03:31:37;101258.41;;;-7.36;65.64
70323;BME280;57735;56.264;43.898;2022-11-20T03:34:13;101252.44;;;-7.40;66.14
70323;BME280;57735;56.264;43.898;2022-11-20T03:36:44;101252.50;;;-7.45;66.01
70323;BME280;57735;56.264;43.898;2022-11-20T03:39:15;101247.28;;;-7.42;66.41
70323;BME280;57735;56.264;43.898;2022-11-20T03:41:46;101253.31;;;-7.40;65.85
70323;BME280;57735;56.264;43.898;2022-11-20T03:44:17;101252.44;;;-7.38;65.90
70323;BME280;57735;56.264;43.898;2022-11-20T03:46:47;101266.25;;;-7.38;66.04
70323;BME280;57735;56.264;43.898;2022-11-20T03:49:18;101269.84;;;-7.53;65.74
70323;BME280;57735;56.264;43.898;2022-11-20T03:51:49;101258.75;;;-7.62;65.84
70323;BME280;57735;56.264;43.898;2022-11-20T03:54:20;101266.56;;;-7.67;66.29
70323;BME280;57735;56.264;43.898;2022-11-20T03:56:51;101263.94;;;-7.62;66.51
70323;BME280;57735;56.264;43.898;2022-11-20T03:59:21;101260.44;;;-7.60;66.09
70323;BME280;57735;56.264;43.898;2022-11-20T04:01:54;101261.28;;;-7.56;66.13
70323;BME280;57735;56.264;43.898;2022-11-20T04:04:25;101263.91;;;-7.59;65.94
70323;BME280;57735;56.264;43.898;2022-11-20T04:06:56;101264.78;;;-7.60;65.64
70323;BME280;57735;56.264;43.898;2022-11-20T04:09:32;101260.50;;;-7.63;65.98
70323;BME280;57735;56.264;43.898;2022-11-20T04:12:05;101273.38;;;-7.58;66.18
70323;BME280;57735;56.264;43.898;2022-11-20T04:14:36;101269.94;;;-7.59;66.33
70323;BME280;57735;56.264;43.898;2022-11-20T04:17:09;101259.66;;;-7.66;65.93
70323;BME280;57735;56.264;43.898;2022-11-20T04:19:40;101262.19;;;-7.60;66.38
70323;BME280;57735;56.264;43.898;2022-11-20T04:22:11;101276.88;;;-7.62;65.81
70323;BME280;57735;56.264;43.898;2022-11-20T04:24:42;101264.81;;;-7.63;65.70
70323;BME280;57735;56.264;43.898;2022-11-20T04:27:13;101250.16;;;-7.66;66.16
70323;BME280;57735;56.264;43.898;2022-11-20T04:29:47;101247.56;;;-7.66;65.83
70323;BME280;57735;56.264;43.898;2022-11-20T04:32:18;101245.94;;;-7.73;65.83
70323;BME280;57735;56.264;43.898;2022-11-20T04:34:48;101252.03;;;-7.77;65.37
70323;BME280;57735;56.264;43.898;2022-11-20T04:37:19;101250.31;;;-7.78;65.78
70323;BME280;57735;56.264;43.898;2022-11-20T04:39:50;101248.59;;;-7.78;65.86
70323;BME280;57735;56.264;43.898;2022-11-20T04:42:21;101252.00;;;-7.76;65.85
70323;BME280;57735;56.264;43.898;2022-11-20T04:45:00;101252.09;;;-7.83;66.06
70323;BME280;57735;56.264;43.898;2022-11-20T04:47:32;101246.06;;;-7.87;66.06
70323;BME280;57735;56.264;43.898;2022-11-20T04:50:03;101250.31;;;-7.78;66.21
70323;BME280;57735;56.264;43.898;2022-11-20T04:52:36;101253.69;;;-7.71;66.30
70323;BME280;57735;56.264;43.898;2022-11-20T04:55:07;101248.44;;;-7.67;66.37
70323;BME280;57735;56.264;43.898;2022-11-20T04:57:40;101248.53;;;-7.73;66.22
70323;BME280;57735;56.264;43.898;2022-11-20T05:00:14;101249.44;;;-7.76;66.06
70323;BME280;57735;56.264;43.898;2022-11-20T05:02:48;101258.03;;;-7.75;65.93
70323;BME280;57735;56.264;43.898;2022-11-20T05:05:18;101253.72;;;-7.75;66.05
70323;BME280;57735;56.264;43.898;2022-11-20T05:07:49;101249.41;;;-7.72;66.07
70323;BME280;57735;56.264;43.898;2022-11-20T05:10:20;101245.88;;;-7.68;65.91
70323;BME280;57735;56.264;43.898;2022-11-20T05:12:51;101263.09;;;-7.66;66.07
70323;BME280;57735;56.264;43.898;2022-11-20T05:15:22;101256.19;;;-7.64;66.27
70323;BME280;57735;56.264;43.898;2022-11-20T05:17:53;101256.16;;;-7.62;66.37
70323;BME280;57735;56.264;43.898;2022-11-20T05:20:27;101246.72;;;-7.66;65.75
70323;BME280;57735;56.264;43.898;2022-11-20T05:22:57;101253.72;;;-7.73;65.80
70323;BME280;57735;56.264;43.898;2022-11-20T05:25:31;101245.06;;;-7.72;65.97
70323;BME280;57735;56.264;43.898;2022-11-20T05:28:02;101251.84;;;-7.62;65.81
70323;BME280;57735;56.264;43.898;2022-11-20T05:30:32;101251.84;;;-7.62;65.87
70323;BME280;57735;56.264;43.898;2022-11-20T05:33:03;101250.13;;;-7.63;65.48
70323;BME280;57735;56.264;43.898;2022-11-20T05:35:34;101260.53;;;-7.67;65.95
70323;BME280;57735;56.264;43.898;2022-11-20T05:38:05;101262.13;;;-7.56;65.99
70323;BME280;57735;56.264;43.898;2022-11-20T05:40:36;101250.91;;;-7.55;65.89
70323;BME280;57735;56.264;43.898;2022-11-20T05:43:07;101255.16;;;-7.51;65.88
70323;BME280;57735;56.264;43.898;2022-11-20T05:45:38;101250.78;;;-7.46;65.85
70323;BME280;57735;56.264;43.898;2022-11-20T05:48:08;101249.06;;;-7.47;65.52
70323;BME280;57735;56.264;43.898;2022-11-20T05:50:39;101257.69;;;-7.46;65.24
70323;BME280;57735;56.264;43.898;2022-11-20T05:53:10;101250.75;;;-7.43;65.29
70323;BME280;57735;56.264;43.898;2022-11-20T05:55:41;101256.78;;;-7.41;64.88
70323;BME280;57735;56.264;43.898;2022-11-20T05:58:12;101253.41;;;-7.49;64.79
70323;BME280;57735;56.264;43.898;2022-11-20T06:00:42;101252.69;;;-7.58;65.56
70323;BME280;57735;56.264;43.898;2022-11-20T06:03:13;101260.34;;;-7.52;65.45
70323;BME280;57735;56.264;43.898;2022-11-20T06:05:44;101262.91;;;-7.49;65.31
70323;BME280;57735;56.264;43.898;2022-11-20T06:08:15;101265.50;;;-7.51;64.93
70323;BME280;57735;56.264;43.898;2022-11-20T06:10:46;101262.13;;;-7.54;64.52
70323;BME280;57735;56.264;43.898;2022-11-20T06:13:17;101244.78;;;-7.51;65.19
70323;BME280;57735;56.264;43.898;2022-11-20T06:15:51;101246.53;;;-7.53;64.71
70323;BME280;57735;56.264;43.898;2022-11-20T06:18:22;101257.06;;;-7.65;64.74
70323;BME280;57735;56.264;43.898;2022-11-20T06:21:00;101253.72;;;-7.73;65.49
70323;BME280;57735;56.264;43.898;2022-11-20T06:23:32;101255.38;;;-7.69;65.62
70323;BME280;57735;56.264;43.898;2022-11-20T06:26:08;101249.28;;;-7.63;65.57
70323;BME280;57735;56.264;43.898;2022-11-20T06:28:39;101251.00;;;-7.64;65.44
70323;BME280;57735;56.264;43.898;2022-11-20T06:31:15;101253.44;;;-7.52;65.44
70323;BME280;57735;56.264;43.898;2022-11-20T06:33:46;101243.84;;;-7.44;64.85
70323;BME280;57735;56.264;43.898;2022-11-20T06:36:18;101248.03;;;-7.35;64.76
70323;BME280;57735;56.264;43.898;2022-11-20T06:38:55;101256.53;;;-7.22;65.14
70323;BME280;57735;56.264;43.898;2022-11-20T06:41:28;101261.63;;;-7.18;64.25
70323;BME280;57735;56.264;43.898;2022-11-20T06:43:59;101246.97;;;-7.20;64.07
70323;BME280;57735;56.264;43.898;2022-11-20T06:46:32;101246.00;;;-7.12;64.70
70323;BME280;57735;56.264;43.898;2022-11-20T06:49:05;101245.94;;;-7.04;63.87
70323;BME280;57735;56.264;43.898;2022-11-20T06:51:36;101246.69;;;-6.99;63.76
70323;BME280;57735;56.264;43.898;2022-11-20T06:54:07;101245.69;;;-6.89;63.80
70323;BME280;57735;56.264;43.898;2022-11-20T06:56:38;101247.19;;;-6.74;63.70
70323;BME280;57735;56.264;43.898;2022-11-20T06:59:08;101249.69;;;-6.70;63.05
70323;BME280;57735;56.264;43.898;2022-11-20T07:01:39;101251.38;;;-6.67;63.15
70323;BME280;57735;56.264;43.898;2022-11-20T07:04:10;101251.38;;;-6.65;62.88
70323;BME280;57735;56.264;43.898;2022-11-20T07:06:41;101254.72;;;-6.59;62.89
70323;BME280;57735;56.264;43.898;2022-11-20T07:09:12;101251.25;;;-6.58;62.68
70323;BME280;57735;56.264;43.898;2022-11-20T07:11:42;101236.59;;;-6.59;62.64
70323;BME280;57735;56.264;43.898;2022-11-20T07:14:13;101247.00;;;-6.63;61.65
70323;BME280;57735;56.264;43.898;2022-11-20T07:16:44;101253.22;;;-6.72;62.18
70323;BME280;57735;56.264;43.898;2022-11-20T07:19:15;101250.63;;;-6.72;62.30
70323;BME280;57735;56.264;43.898;2022-11-20T07:21:46;101260.81;;;-6.61;62.90
70323;BME280;57735;56.264;43.898;2022-11-20T07:24:17;101258.03;;;-6.51;62.95
70323;BME280;57735;56.264;43.898;2022-11-20T07:26:47;101262.25;;;-6.44;62.77
70323;BME280;57735;56.264;43.898;2022-11-20T07:29:19;101277.69;;;-6.36;62.74
70323;BME280;57735;56.264;43.898;2022-11-20T07:31:50;101278.38;;;-6.25;62.69
70323;BME280;57735;56.264;43.898;2022-11-20T07:34:21;101281.81;;;-6.24;62.36
70323;BME280;57735;56.264;43.898;2022-11-20T07:36:52;101288.72;;;-6.23;62.61
70323;BME280;57735;56.264;43.898;2022-11-20T07:39:22;101287.00;;;-6.23;62.51
70323;BME280;57735;56.264;43.898;2022-11-20T07:41:53;101290.41;;;-6.21;62.33
70323;BME280;57735;56.264;43.898;2022-11-20T07:44:26;101286.13;;;-6.23;62.21
70323;BME280;57735;56.264;43.898;2022-11-20T07:46:57;101292.28;;;-6.29;62.20
70323;BME280;57735;56.264;43.898;2022-11-20T07:49:28;101301.75;;;-6.26;62.36
70323;BME280;57735;56.264;43.898;2022-11-20T07:51:59;101305.22;;;-6.27;62.21
70323;BME280;57735;56.264;43.898;2022-11-20T07:54:29;101301.72;;;-6.25;62.33
70323;BME280;57735;56.264;43.898;2022-11-20T07:57:00;101294.94;;;-6.35;61.85
70323;BME280;57735;56.264;43.898;2022-11-20T07:59:31;101299.25;;;-6.34;62.12
70323;BME280;57735;56.264;43.898;2022-11-20T08:02:05;101300.06;;;-6.29;62.47
70323;BME280;57735;56.264;43.898;2022-11-20T08:04:40;101300.81;;;-6.21;62.19
70323;BME280;57735;56.264;43.898;2022-11-20T08:07:11;101293.00;;;-6.21;61.82
70323;BME280;57735;56.264;43.898;2022-11-20T08:09:42;101304.34;;;-6.26;61.40
70323;BME280;57735;56.264;43.898;2022-11-20T08:12:20;101299.25;;;-6.32;61.65
70323;BME280;57735;56.264;43.898;2022-11-20T08:15:10;101303.50;;;-6.28;62.21
70323;BME280;57735;56.264;43.898;2022-11-20T08:17:41;101310.47;;;-6.32;61.83
70323;BME280;57735;56.264;43.898;2022-11-20T08:20:16;101313.84;;;-6.27;62.17
70323;BME280;57735;56.264;43.898;2022-11-20T08:22:47;101317.22;;;-6.20;62.19
70323;BME280;57735;56.264;43.898;2022-11-20T08:25:18;101324.16;;;-6.22;61.88
70323;BME280;57735;56.264;43.898;2022-11-20T08:27:49;101334.63;;;-6.27;62.00
70323;BME280;57735;56.264;43.898;2022-11-20T08:30:20;101326.78;;;-6.24;62.16
70323;BME280;57735;56.264;43.898;2022-11-20T08:32:50;101327.63;;;-6.22;62.39
70323;BME280;57735;56.264;43.898;2022-11-20T08:35:21;101332.72;;;-6.17;62.27
70323;BME280;57735;56.264;43.898;2022-11-20T08:37:52;101343.03;;;-6.13;62.55
70323;BME280;57735;56.264;43.898;2022-11-20T08:40:23;101348.09;;;-6.04;62.51
70323;BME280;57735;56.264;43.898;2022-11-20T08:42:57;101340.41;;;-6.11;61.66
70323;BME280;57735;56.264;43.898;2022-11-20T08:45:28;101343.94;;;-6.17;62.04
70323;BME280;57735;56.264;43.898;2022-11-20T08:48:02;101341.41;;;-6.20;61.80
70323;BME280;57735;56.264;43.898;2022-11-20T08:50:38;101338.88;;;-6.23;61.92
70323;BME280;57735;56.264;43.898;2022-11-20T08:53:09;101328.47;;;-6.21;62.20
70323;BME280;57735;56.264;43.898;2022-11-20T08:55:40;101325.78;;;-6.17;62.71
70323;BME280;57735;56.264;43.898;2022-11-20T08:58:13;101317.88;;;-6.09;62.49
70323;BME280;57735;56.264;43.898;2022-11-20T09:00:44;101313.53;;;-6.07;62.17
70323;BME280;57735;56.264;43.898;2022-11-20T09:03:15;101323.13;;;-6.12;61.87
70323;BME280;57735;56.264;43.898;2022-11-20T09:05:45;101323.13;;;-6.12;61.97
70323;BME280;57735;56.264;43.898;2022-11-20T09:08:16;101327.47;;;-6.13;61.94
70323;BME280;57735;56.264;43.898;2022-11-20T09:10:51;101313.56;;;-6.09;61.72
70323;BME280;57735;56.264;43.898;2022-11-20T09:13:23;101310.09;;;-6.09;61.82
70323;BME280;57735;56.264;43.898;2022-11-20T09:15:59;101316.03;;;-6.03;61.98
70323;BME280;57735;56.264;43.898;2022-11-20T09:18:30;101320.34;;;-6.03;61.90
70323;BME280;57735;56.264;43.898;2022-11-20T09:21:10;101327.16;;;-5.94;62.61
70323;BME280;57735;56.264;43.898;2022-11-20T09:23:41;101322.63;;;-5.86;62.39
70323;BME280;57735;56.264;43.898;2022-11-20T09:26:13;101319.25;;;-5.88;61.83
70323;BME280;57735;56.264;43.898;2022-11-20T09:28:46;101312.31;;;-5.88;62.00
70323;BME280;57735;56.264;43.898;2022-11-20T09:31:24;101325.34;;;-5.89;62.18
70323;BME280;57735;56.264;43.898;2022-11-20T09:33:56;101309.66;;;-5.86;62.07
70323;BME280;57735;56.264;43.898;2022-11-20T09:36:27;101308.75;;;-5.84;62.16
70323;BME280;57735;56.264;43.898;2022-11-20T09:38:58;101300.84;;;-5.78;62.26
70323;BME280;57735;56.264;43.898;2022-11-20T09:50:45;101302.59;;;-5.78;62.15
70323;BME280;57735;56.264;43.898;2022-11-20T09:53:37;101304.22;;;-5.71;62.51
70323;BME280;57735;56.264;43.898;2022-11-20T09:56:19;101308.47;;;-5.69;62.88
70323;BME280;57735;56.264;43.898;2022-11-20T09:58:52;101305.88;;;-5.69;62.22
70323;BME280;57735;56.264;43.898;2022-11-20T10:01:30;101302.53;;;-5.75;63.13
70323;BME280;57735;56.264;43.898;2022-11-20T10:04:06;101292.09;;;-5.72;62.52
70323;BME280;57735;56.264;43.898;2022-11-20T10:06:56;101294.56;;;-5.66;61.77
70323;BME280;57735;56.264;43.898;2022-11-20T10:09:54;101298.00;;;-5.64;62.07
70323;BME280;57735;56.264;43.898;2022-11-20T10:15:41;101303.75;;;-5.93;62.32
70323;BME280;57735;56.264;43.898;2022-11-20T10:18:31;101321.16;;;-6.00;62.55
70323;BME280;57735;56.264;43.898;2022-11-20T10:29:33;101313.88;;;-5.79;62.88
70323;BME280;57735;56.264;43.898;2022-11-20T10:32:15;101318.91;;;-5.70;62.87
70323;BME280;57735;56.264;43.898;2022-11-20T10:35:00;101311.03;;;-5.67;62.81
70323;BME280;57735;56.264;43.898;2022-11-20T10:37:34;101318.28;;;-5.86;62.20
70323;BME280;57735;56.264;43.898;2022-11-20T10:42:55;101321.91;;;-5.91;62.50
70323;BME280;57735;56.264;43.898;2022-11-20T10:48:11;101308.97;;;-5.93;63.16
70323;BME280;57735;56.264;43.898;2022-11-20T10:51:12;101303.06;;;-6.03;62.70
70323;BME280;57735;56.264;43.898;2022-11-20T10:56:51;101306.75;;;-6.16;62.40
70323;BME280;57735;56.264;43.898;2022-11-20T11:01:55;101304.16;;;-6.16;62.83
70323;BME280;57735;56.264;43.898;2022-11-20T11:04:36;101317.16;;;-6.17;62.60
70323;BME280;57735;56.264;43.898;2022-11-20T11:07:27;101316.38;;;-6.22;63.08
70323;BME280;57735;56.264;43.898;2022-11-20T11:09:59;101306.00;;;-6.21;63.53
70323;BME280;57735;56.264;43.898;2022-11-20T11:12:30;101311.19;;;-6.22;63.14
70323;BME280;57735;56.264;43.898;2022-11-20T11:15:01;101304.25;;;-6.20;63.03
70323;BME280;57735;56.264;43.898;2022-11-20T11:17:34;101292.94;;;-6.18;62.90
70323;BME280;57735;56.264;43.898;2022-11-20T11:22:47;101284.28;;;-6.17;63.21
70323;BME280;57735;56.264;43.898;2022-11-20T11:25:38;101284.22;;;-6.14;63.06
70323;BME280;57735;56.264;43.898;2022-11-20T11:30:49;101308.50;;;-6.18;62.74
70323;BME280;57735;56.264;43.898;2022-11-20T11:33:25;101309.19;;;-6.07;63.15
70323;BME280;57735;56.264;43.898;2022-11-20T11:36:02;101316.16;;;-6.09;62.15
70323;BME280;57735;56.264;43.898;2022-11-20T11:38:40;101315.28;;;-6.08;62.54
70323;BME280;57735;56.264;43.898;2022-11-20T11:41:17;101317.00;;;-6.07;62.66
70323;BME280;57735;56.264;43.898;2022-11-20T11:43:58;101317.91;;;-6.11;62.56
70323;BME280;57735;56.264;43.898;2022-11-20T11:46:55;101325.81;;;-6.20;62.81
70323;BME280;57735;56.264;43.898;2022-11-20T11:49:27;101331.81;;;-6.15;63.40
70323;BME280;57735;56.264;43.898;2022-11-20T11:52:18;101329.22;;;-6.15;63.47
70323;BME280;57735;56.264;43.898;2022-11-20T11:54:58;101324.91;;;-6.16;63.25
70323;BME280;57735;56.264;43.898;2022-11-20T11:57:38;101325.75;;;-6.15;63.47
70323;BME280;57735;56.264;43.898;2022-11-20T12:08:21;101339.75;;;-6.24;64.17
70323;BME280;57735;56.264;43.898;2022-11-20T12:11:10;101339.72;;;-6.21;63.73
70323;BME280;57735;56.264;43.898;2022-11-20T12:14:04;101334.59;;;-6.25;63.54
70323;BME280;57735;56.264;43.898;2022-11-20T12:16:43;101344.13;;;-6.27;63.57
70323;BME280;57735;56.264;43.898;2022-11-20T12:19:14;101356.34;;;-6.36;63.36
70323;BME280;57735;56.264;43.898;2022-11-20T12:24:29;101364.28;;;-6.45;63.48
70323;BME280;57735;56.264;43.898;2022-11-20T12:27:35;101366.94;;;-6.49;63.81
70323;BME280;57735;56.264;43.898;2022-11-20T12:30:17;101361.72;;;-6.48;64.21
70323;BME280;57735;56.264;43.898;2022-11-20T12:45:22;101369.72;;;-6.61;64.02
70323;BME280;57735;56.264;43.898;2022-11-20T12:48:20;101362.84;;;-6.67;64.06
70323;BME280;57735;56.264;43.898;2022-11-20T13:02:02;101369.44;;;-6.43;65.18
70323;BME280;57735;56.264;43.898;2022-11-20T13:07:13;101376.28;;;-6.38;65.14
70323;BME280;57735;56.264;43.898;2022-11-20T13:09:47;101379.66;;;-6.32;65.42
70323;BME280;57735;56.264;43.898;2022-11-20T13:12:28;101383.97;;;-6.33;64.89
70323;BME280;57735;56.264;43.898;2022-11-20T13:18:01;101366.78;;;-6.39;64.57
70323;BME280;57735;56.264;43.898;2022-11-20T13:20:41;101381.44;;;-6.36;64.93
70323;BME280;57735;56.264;43.898;2022-11-20T13:23:25;101380.56;;;-6.35;64.83
70323;BME280;57735;56.264;43.898;2022-11-20T13:26:17;101384.03;;;-6.36;64.68
70323;BME280;57735;56.264;43.898;2022-11-20T13:29:09;101377.09;;;-6.36;64.89
70323;BME280;57735;56.264;43.898;2022-11-20T13:31:44;101371.03;;;-6.35;64.92
70323;BME280;57735;56.264;43.898;2022-11-20T13:34:28;101376.25;;;-6.36;64.75
70323;BME280;57735;56.264;43.898;2022-11-20T13:37:00;101383.97;;;-6.33;64.89
70323;BME280;57735;56.264;43.898;2022-11-20T13:39:33;101386.63;;;-6.36;65.43
70323;BME280;57735;56.264;43.898;2022-11-20T13:44:48;101394.31;;;-6.30;65.47
70323;BME280;57735;56.264;43.898;2022-11-20T13:47:25;101403.00;;;-6.32;65.23
70323;BME280;57735;56.264;43.898;2022-11-20T13:49:58;101399.53;;;-6.31;65.21
70323;BME280;57735;56.264;43.898;2022-11-20T13:55:32;101396.00;;;-6.26;65.75
70323;BME280;57735;56.264;43.898;2022-11-20T14:03:39;101375.31;;;-6.30;64.57
70323;BME280;57735;56.264;43.898;2022-11-20T14:06:28;101382.22;;;-6.29;65.39
70323;BME280;57735;56.264;43.898;2022-11-20T14:08:59;101395.13;;;-6.25;65.40
70323;BME280;57735;56.264;43.898;2022-11-20T14:11:31;101399.31;;;-6.18;65.51
70323;BME280;57735;56.264;43.898;2022-11-20T14:14:03;101399.28;;;-6.15;65.26
70323;BME280;57735;56.264;43.898;2022-11-20T14:16:37;101395.81;;;-6.15;65.25
70323;BME280;57735;56.264;43.898;2022-11-20T14:22:06;101399.19;;;-6.09;65.49
70323;BME280;57735;56.264;43.898;2022-11-20T14:24:38;101401.81;;;-6.12;64.80
70323;BME280;57735;56.264;43.898;2022-11-20T14:27:18;101404.41;;;-6.10;65.38
70323;BME280;57735;56.264;43.898;2022-11-20T14:29:50;101406.16;;;-6.12;65.00
70323;BME280;57735;56.264;43.898;2022-11-20T14:32:24;101397.69;;;-6.23;65.17
70323;BME280;57735;56.264;43.898;2022-11-20T14:35:03;101396.91;;;-6.30;65.48
70323;BME280;57735;56.264;43.898;2022-11-20T14:37:38;101392.63;;;-6.32;65.35
70323;BME280;57735;56.264;43.898;2022-11-20T14:40:30;101388.41;;;-6.38;65.63
70323;BME280;57735;56.264;43.898;2022-11-20T14:43:14;101400.41;;;-6.34;66.35
70323;BME280;57735;56.264;43.898;2022-11-20T14:46:00;101399.53;;;-6.31;66.34
70323;BME280;57735;56.264;43.898;2022-11-20T14:51:11;101402.94;;;-6.28;66.15